createdAt,value
2023-02-09T00:01:21.705Z,24.13
2023-02-09T00:03:51.162Z,24.40
2023-02-09T00:06:21.446Z,23.20
2023-02-09T00:08:50.642Z,23.83
2023-02-09T00:11:41.858Z,24.13
2023-02-09T00:14:10.395Z,23.30
2023-02-09T00:16:41.441Z,26.03
2023-02-09T00:19:10.696Z,24.13
2023-02-09T00:21:39.797Z,24.57
2023-02-09T00:24:10.913Z,25.80
2023-02-09T00:26:40.182Z,23.80
2023-02-09T00:29:12.205Z,24.13
2023-02-09T00:31:42.599Z,24.17
2023-02-09T00:34:12.317Z,24.70
2023-02-09T00:36:41.388Z,24.73
2023-02-09T00:39:10.674Z,25.40
2023-02-09T00:41:57.094Z,24.70
2023-02-09T00:44:25.957Z,24.40
2023-02-09T00:46:57.015Z,24.40
2023-02-09T00:49:26.004Z,23.60
2023-02-09T00:51:55.656Z,23.57
2023-02-09T00:54:26.664Z,24.00
2023-02-09T00:57:05.606Z,23.40
2023-02-09T01:00:06.158Z,24.83
2023-02-09T01:02:36.494Z,24.40
2023-02-09T01:05:05.788Z,23.67
2023-02-09T01:07:35.189Z,24.50
2023-02-09T01:10:04.597Z,36.30
2023-02-09T01:12:33.585Z,23.63
2023-02-09T01:15:03.087Z,24.57
2023-02-09T01:17:32.353Z,23.20
2023-02-09T01:20:02.875Z,23.10
2023-02-09T01:22:35.408Z,24.13
2023-02-09T01:25:04.796Z,23.30
2023-02-09T01:27:39.124Z,26.90
2023-02-09T01:30:08.903Z,23.67
2023-02-09T01:32:37.966Z,27.00
2023-02-09T01:35:08.744Z,23.27
2023-02-09T01:37:39.381Z,24.20
2023-02-09T01:40:13.204Z,23.40
2023-02-09T01:42:42.510Z,23.37
2023-02-09T01:45:22.770Z,24.57
2023-02-09T01:47:54.238Z,27.43
2023-02-09T01:50:25.000Z,23.77
2023-02-09T01:52:54.419Z,23.10
2023-02-09T01:55:27.084Z,23.17
2023-02-09T01:57:58.378Z,23.20
2023-02-09T02:00:27.380Z,22.77
2023-02-09T02:02:59.364Z,24.27
2023-02-09T02:05:33.857Z,22.43
2023-02-09T02:08:06.194Z,26.30
2023-02-09T02:10:35.418Z,23.40
2023-02-09T02:13:04.824Z,29.03
2023-02-09T02:15:41.818Z,23.17
2023-02-09T02:18:21.956Z,23.60
2023-02-09T02:21:17.501Z,22.30
2023-02-09T02:23:51.095Z,23.50
2023-02-09T02:26:49.372Z,23.10
2023-02-09T02:29:30.416Z,23.23
2023-02-09T02:32:12.016Z,22.50
2023-02-09T02:34:48.304Z,22.17
2023-02-09T02:37:28.156Z,26.90
2023-02-09T02:40:04.017Z,22.70
2023-02-09T02:42:53.171Z,23.27
2023-02-09T02:45:32.702Z,25.13
2023-02-09T02:48:10.618Z,23.07
2023-02-09T02:50:43.638Z,22.63
2023-02-09T02:53:14.200Z,23.57
2023-02-09T02:55:44.345Z,22.57
2023-02-09T02:58:14.382Z,22.27
2023-02-09T03:00:46.009Z,23.97
2023-02-09T03:03:18.490Z,22.80
2023-02-09T03:05:48.845Z,22.80
2023-02-09T03:08:21.430Z,22.73
2023-02-09T03:10:50.312Z,23.03
2023-02-09T03:13:34.839Z,23.57
2023-02-09T03:16:14.317Z,22.70
2023-02-09T03:18:51.394Z,24.30
2023-02-09T03:21:25.817Z,22.30
2023-02-09T03:23:58.132Z,30.37
2023-02-09T03:26:40.494Z,24.20
2023-02-09T03:29:10.509Z,24.63
2023-02-09T03:31:40.079Z,23.17
2023-02-09T03:34:12.574Z,22.40
2023-02-09T03:36:43.431Z,22.20
2023-02-09T03:39:12.537Z,25.50
2023-02-09T03:41:41.318Z,22.00
2023-02-09T03:44:28.025Z,23.30
2023-02-09T03:47:01.017Z,22.27
2023-02-09T03:49:33.711Z,22.50
2023-02-09T03:52:13.854Z,24.53
2023-02-09T03:54:42.727Z,22.40
2023-02-09T03:57:11.944Z,22.30
2023-02-09T03:59:40.660Z,22.57
2023-02-09T04:02:14.530Z,22.87
2023-02-09T04:04:47.626Z,22.10
2023-02-09T04:07:16.821Z,22.03
2023-02-09T04:09:46.023Z,22.70
2023-02-09T04:12:15.333Z,23.77
2023-02-09T04:14:44.553Z,22.30
2023-02-09T04:17:13.639Z,22.20
2023-02-09T04:19:42.738Z,21.67
2023-02-09T04:22:13.133Z,23.40
2023-02-09T04:24:46.045Z,22.77
2023-02-09T04:27:14.917Z,24.30
2023-02-09T04:29:44.637Z,22.50
2023-02-09T04:32:17.371Z,22.43
2023-02-09T04:34:46.493Z,21.90
2023-02-09T04:37:16.895Z,22.70
2023-02-09T04:39:46.239Z,22.00
2023-02-09T04:42:14.928Z,24.77
2023-02-09T04:44:43.907Z,22.40
2023-02-09T04:47:12.935Z,23.00
2023-02-09T04:49:42.778Z,22.10
2023-02-09T04:52:11.577Z,23.33
2023-02-09T04:54:42.107Z,23.27
2023-02-09T04:57:28.448Z,22.87
2023-02-09T04:59:57.658Z,22.10
2023-02-09T05:02:26.623Z,22.47
2023-02-09T05:04:58.524Z,21.70
2023-02-09T05:07:27.782Z,23.80
2023-02-09T05:09:58.223Z,22.00
2023-02-09T05:12:27.214Z,22.97
2023-02-09T05:14:59.274Z,21.40
2023-02-09T05:17:28.178Z,24.57
2023-02-09T05:19:57.057Z,22.80
2023-02-09T05:22:25.930Z,21.97
2023-02-09T05:24:55.385Z,36.60
2023-02-09T05:27:25.687Z,22.07
2023-02-09T05:29:54.973Z,22.20
2023-02-09T05:32:26.427Z,23.37
2023-02-09T05:34:55.756Z,24.63
2023-02-09T05:37:24.949Z,22.30
2023-02-09T05:39:54.321Z,24.33
2023-02-09T05:42:23.356Z,21.50
2023-02-09T05:44:53.839Z,26.70
2023-02-09T05:47:24.884Z,22.97
2023-02-09T05:49:53.817Z,22.13
2023-02-09T05:52:23.223Z,22.70
2023-02-09T05:54:52.491Z,24.80
2023-02-09T05:57:21.822Z,23.43
2023-02-09T05:59:50.705Z,21.90
2023-02-09T06:02:21.164Z,23.10
2023-02-09T06:04:50.103Z,22.00
2023-02-09T06:07:19.080Z,22.73
2023-02-09T06:09:50.308Z,22.23
2023-02-09T06:12:19.623Z,21.80
2023-02-09T06:14:48.455Z,22.10
2023-02-09T06:17:17.435Z,21.27
2023-02-09T06:19:47.674Z,22.07
2023-02-09T06:22:16.670Z,21.77
2023-02-09T06:24:45.682Z,21.20
2023-02-09T06:27:18.927Z,21.47
2023-02-09T06:29:50.950Z,21.60
2023-02-09T06:32:20.229Z,21.93
2023-02-09T06:34:54.269Z,22.13
2023-02-09T06:37:23.026Z,21.03
2023-02-09T06:39:52.427Z,22.40
2023-02-09T06:42:21.514Z,20.90
2023-02-09T06:44:50.527Z,21.73
2023-02-09T06:47:19.616Z,21.83
2023-02-09T06:49:51.480Z,21.30
2023-02-09T06:52:22.013Z,21.63
2023-02-09T06:54:51.106Z,21.63
2023-02-09T06:57:20.114Z,22.73
2023-02-09T06:59:49.484Z,22.20
2023-02-09T07:02:22.262Z,22.70
2023-02-09T07:04:51.288Z,22.87
2023-02-09T07:07:21.510Z,21.13
2023-02-09T07:09:50.279Z,21.73
2023-02-09T07:12:22.262Z,24.67
2023-02-09T07:14:51.245Z,21.27
2023-02-09T07:17:20.142Z,22.50
2023-02-09T07:19:49.752Z,20.80
2023-02-09T07:22:18.847Z,20.80
2023-02-09T07:24:49.254Z,20.80
2023-02-09T07:27:18.265Z,24.20
2023-02-09T07:29:47.770Z,21.73
2023-02-09T07:32:19.493Z,22.07
2023-02-09T07:34:50.631Z,24.13
2023-02-09T07:37:20.181Z,21.40
2023-02-09T07:39:50.592Z,21.17
2023-02-09T07:42:20.346Z,28.77
2023-02-09T07:45:07.516Z,21.77
2023-02-09T07:47:43.426Z,22.47
2023-02-09T07:50:12.384Z,24.27
2023-02-09T07:52:41.304Z,22.13
2023-02-09T07:55:11.681Z,23.73
2023-02-09T07:57:40.905Z,22.90
2023-02-09T08:00:14.508Z,21.67
2023-02-09T08:02:47.469Z,22.50
2023-02-09T08:05:19.874Z,22.07
2023-02-09T08:07:48.861Z,22.03
2023-02-09T08:10:20.691Z,21.60
2023-02-09T08:13:02.932Z,22.23
2023-02-09T08:15:39.397Z,23.27
2023-02-09T08:18:12.942Z,22.27
2023-02-09T08:20:42.388Z,23.20
2023-02-09T08:23:39.496Z,22.60
2023-02-09T08:26:13.269Z,22.50
2023-02-09T08:28:45.009Z,22.50
2023-02-09T08:31:17.136Z,22.97
2023-02-09T08:33:52.685Z,21.73
2023-02-09T08:36:22.212Z,22.10
2023-02-09T08:38:50.903Z,21.50
2023-02-09T08:41:21.979Z,23.13
2023-02-09T08:43:51.810Z,22.20
2023-02-09T08:46:21.066Z,22.60
2023-02-09T08:48:59.297Z,23.27
2023-02-09T08:51:27.992Z,22.87
2023-02-09T08:53:56.772Z,22.20
2023-02-09T08:56:27.043Z,22.90
2023-02-09T08:58:56.298Z,23.43
2023-02-09T09:01:25.124Z,22.30
2023-02-09T09:03:54.224Z,23.00
2023-02-09T09:06:23.264Z,22.37
2023-02-09T09:08:52.579Z,22.60
2023-02-09T09:11:21.430Z,23.77
2023-02-09T09:13:53.039Z,23.70
2023-02-09T09:16:23.472Z,22.63
2023-02-09T09:18:52.371Z,25.40
2023-02-09T09:21:21.505Z,23.30
2023-02-09T09:23:50.435Z,23.97
2023-02-09T09:26:19.352Z,24.70
2023-02-09T09:28:52.358Z,26.07
2023-02-09T09:31:21.625Z,25.63
2023-02-09T09:33:50.958Z,28.10
2023-02-09T09:36:20.794Z,24.53
2023-02-09T09:38:49.830Z,24.60
2023-02-09T09:41:22.324Z,25.43
2023-02-09T09:43:52.938Z,23.83
2023-02-09T09:46:24.039Z,28.83
2023-02-09T09:48:54.303Z,26.63
2023-02-09T09:51:27.593Z,24.37
2023-02-09T09:53:57.917Z,25.10
2023-02-09T09:56:27.352Z,26.20
2023-02-09T09:58:58.561Z,26.00
2023-02-09T10:01:28.760Z,26.70
2023-02-09T10:03:58.697Z,32.60
2023-02-09T10:06:33.862Z,27.07
2023-02-09T10:09:05.650Z,26.20
2023-02-09T10:11:39.907Z,26.53
2023-02-09T10:14:11.837Z,30.40
2023-02-09T10:16:40.810Z,26.13
2023-02-09T10:19:19.386Z,30.83
2023-02-09T10:21:49.071Z,27.00
2023-02-09T10:24:23.634Z,24.90
2023-02-09T10:27:09.042Z,26.73
2023-02-09T10:29:39.239Z,27.53
2023-02-09T10:32:16.394Z,25.47
2023-02-09T10:34:48.373Z,26.57
2023-02-09T10:37:26.815Z,26.00
2023-02-09T10:40:00.608Z,25.53
2023-02-09T10:42:31.298Z,29.97
2023-02-09T10:45:08.600Z,28.30
2023-02-09T10:47:37.186Z,27.17
2023-02-09T10:50:17.265Z,27.83
2023-02-09T10:52:56.471Z,26.57
2023-02-09T10:55:29.805Z,27.97
2023-02-09T10:58:19.471Z,27.13
2023-02-09T11:00:54.181Z,26.43
2023-02-09T11:03:25.497Z,27.47
2023-02-09T11:06:02.455Z,26.57
2023-02-09T11:08:40.948Z,28.10
2023-02-09T11:11:24.760Z,26.87
2023-02-09T11:13:53.772Z,29.03
2023-02-09T11:16:39.480Z,26.07
2023-02-09T11:19:14.594Z,29.93
2023-02-09T11:21:55.717Z,27.30
2023-02-09T11:24:31.948Z,28.77
2023-02-09T11:27:04.568Z,29.90
2023-02-09T11:29:38.023Z,29.63
2023-02-09T11:32:13.785Z,28.63
2023-02-09T11:35:09.201Z,25.70
2023-02-09T11:37:41.823Z,27.10
2023-02-09T11:40:23.464Z,27.30
2023-02-09T11:43:02.993Z,25.53
2023-02-09T11:45:35.244Z,27.83
2023-02-09T11:48:10.743Z,28.80
2023-02-09T11:50:44.857Z,26.70
2023-02-09T11:53:21.665Z,29.30
2023-02-09T11:55:53.789Z,27.20
2023-02-09T11:58:34.562Z,26.60
2023-02-09T12:01:15.593Z,27.13
2023-02-09T12:03:58.262Z,27.13
2023-02-09T12:06:26.968Z,28.53
2023-02-09T12:09:02.480Z,27.00
2023-02-09T12:11:43.629Z,25.97
2023-02-09T12:14:37.110Z,26.50
2023-02-09T12:17:09.696Z,25.20
2023-02-09T12:19:41.494Z,25.90
2023-02-09T12:22:49.882Z,24.97
2023-02-09T12:25:34.170Z,24.97
2023-02-09T12:28:13.030Z,28.37
2023-02-09T12:31:04.879Z,25.90
2023-02-09T12:33:34.846Z,27.03
2023-02-09T12:36:07.195Z,25.63
2023-02-09T12:38:51.619Z,25.30
2023-02-09T12:41:23.711Z,25.20
2023-02-09T12:43:55.300Z,24.63
2023-02-09T12:46:26.744Z,27.77
2023-02-09T12:49:07.320Z,25.93
2023-02-09T12:51:54.409Z,24.77
2023-02-09T12:54:47.515Z,26.70
2023-02-09T12:57:52.146Z,29.27
2023-02-09T13:00:33.953Z,24.50
2023-02-09T13:03:12.177Z,27.63
2023-02-09T13:05:44.743Z,23.50
2023-02-09T13:08:35.072Z,29.00
2023-02-09T13:11:07.905Z,27.53
2023-02-09T13:13:45.112Z,25.40
2023-02-09T13:16:52.229Z,26.77
2023-02-09T13:19:42.544Z,26.10
2023-02-09T13:22:26.713Z,24.97
2023-02-09T13:25:00.476Z,24.63
2023-02-09T13:27:30.076Z,23.63
2023-02-09T13:30:00.110Z,25.27
2023-02-09T13:32:37.949Z,26.53
2023-02-09T13:35:13.533Z,22.40
2023-02-09T13:37:47.806Z,23.43
2023-02-09T13:40:20.366Z,26.53
2023-02-09T13:42:54.731Z,25.00
2023-02-09T13:45:24.979Z,23.43
2023-02-09T13:47:53.963Z,22.80
2023-02-09T13:50:24.460Z,22.87
2023-02-09T13:52:53.212Z,21.93
2023-02-09T13:55:24.954Z,20.83
2023-02-09T13:57:58.777Z,20.73
2023-02-09T14:00:29.335Z,28.73
2023-02-09T14:03:03.124Z,21.43
2023-02-09T14:05:36.837Z,23.83
2023-02-09T14:08:05.764Z,21.50
2023-02-09T14:10:35.979Z,25.43
2023-02-09T14:13:05.947Z,30.80
2023-02-09T14:15:56.042Z,20.63
2023-02-09T14:18:33.313Z,22.27
2023-02-09T14:21:04.587Z,26.17
2023-02-09T14:23:35.875Z,25.17
2023-02-09T14:26:07.137Z,20.40
2023-02-09T14:28:36.437Z,21.40
2023-02-09T14:31:07.393Z,22.77
2023-02-09T14:33:38.426Z,22.77
2023-02-09T14:36:07.720Z,20.40
2023-02-09T14:38:38.704Z,24.10
2023-02-09T14:41:36.519Z,19.27
2023-02-09T14:44:18.816Z,23.07
2023-02-09T14:46:49.476Z,22.00
2023-02-09T14:49:18.538Z,19.30
2023-02-09T14:51:47.850Z,19.53
2023-02-09T14:54:27.576Z,20.90
2023-02-09T14:56:58.717Z,20.63
2023-02-09T14:59:27.110Z,19.47
2023-02-09T15:01:57.691Z,20.50
2023-02-09T15:04:25.907Z,18.47
2023-02-09T15:07:01.998Z,17.10
2023-02-09T15:09:37.754Z,19.17
2023-02-09T15:12:08.300Z,16.13
2023-02-09T15:14:41.474Z,17.80
2023-02-09T15:17:17.886Z,15.33
2023-02-09T15:19:47.108Z,20.23
2023-02-09T15:22:16.680Z,18.27
2023-02-09T15:24:45.931Z,18.17
2023-02-09T15:27:25.766Z,17.47
2023-02-09T15:29:54.718Z,16.80
2023-02-09T15:32:24.217Z,17.87
2023-02-09T15:34:53.302Z,18.40
2023-02-09T15:37:23.851Z,18.40
2023-02-09T15:39:56.850Z,19.50
2023-02-09T15:42:44.196Z,19.60
2023-02-09T15:45:34.901Z,17.20
2023-02-09T15:48:03.381Z,17.37
2023-02-09T15:50:32.960Z,16.03
2023-02-09T15:53:02.250Z,17.30
2023-02-09T15:55:31.193Z,20.20
2023-02-09T15:58:00.843Z,17.60
2023-02-09T16:00:30.637Z,17.77
2023-02-09T16:03:01.290Z,17.47
2023-02-09T16:05:30.970Z,17.00
2023-02-09T16:08:00.081Z,16.27
2023-02-09T16:10:30.018Z,17.27
2023-02-09T16:12:58.602Z,22.50
2023-02-09T16:15:28.582Z,17.83
2023-02-09T16:17:56.771Z,16.17
2023-02-09T16:20:26.371Z,16.10
2023-02-09T16:22:56.078Z,21.40
2023-02-09T16:25:26.253Z,18.13
2023-02-09T16:27:57.689Z,21.67
2023-02-09T16:30:29.119Z,19.43
2023-02-09T16:32:57.823Z,18.53
2023-02-09T16:35:26.711Z,21.00
2023-02-09T16:37:56.271Z,18.70
2023-02-09T16:40:27.473Z,18.93
2023-02-09T16:42:57.120Z,22.53
2023-02-09T16:45:26.572Z,21.63
2023-02-09T16:47:59.377Z,20.20
2023-02-09T16:50:33.008Z,20.50
2023-02-09T16:53:03.113Z,21.10
2023-02-09T16:55:32.700Z,22.93
2023-02-09T16:58:02.467Z,22.47
2023-02-09T17:00:33.787Z,21.47
2023-02-09T17:03:07.610Z,22.57
2023-02-09T17:05:37.226Z,22.43
2023-02-09T17:08:07.980Z,24.20
2023-02-09T17:10:37.050Z,24.60
2023-02-09T17:13:05.765Z,27.47
2023-02-09T17:15:39.489Z,28.47
2023-02-09T17:18:10.554Z,27.93
2023-02-09T17:20:41.565Z,23.67
2023-02-09T17:23:12.215Z,25.03
2023-02-09T17:25:40.563Z,25.20
2023-02-09T17:28:08.994Z,31.87
2023-02-09T17:30:37.696Z,27.43
2023-02-09T17:33:08.102Z,24.73
2023-02-09T17:38:32.772Z,25.43
2023-02-09T17:41:02.689Z,26.30
2023-02-09T17:43:31.339Z,25.80
2023-02-09T17:45:59.939Z,29.63
2023-02-09T17:48:29.963Z,26.73
2023-02-09T17:51:02.493Z,28.63
2023-02-09T17:53:34.711Z,27.90
2023-02-09T17:56:03.501Z,27.00
2023-02-09T17:58:32.218Z,27.10
2023-02-09T18:01:01.301Z,28.57
2023-02-09T18:03:30.067Z,28.13
2023-02-09T18:06:01.818Z,34.77
2023-02-09T18:08:55.580Z,30.30
2023-02-09T18:11:41.504Z,27.97
2023-02-09T18:14:11.906Z,30.13
2023-02-09T18:16:41.419Z,29.40
2023-02-09T18:19:10.558Z,29.67
2023-02-09T18:21:43.483Z,27.60
2023-02-09T18:24:12.586Z,29.80
2023-02-09T18:26:41.386Z,31.23
2023-02-09T18:29:10.251Z,29.43
2023-02-09T18:31:39.222Z,30.47
2023-02-09T18:34:08.852Z,33.83
2023-02-09T18:36:37.856Z,33.27
2023-02-09T18:39:08.362Z,36.97
2023-02-09T18:41:37.692Z,28.20
2023-02-09T18:44:06.785Z,30.40
2023-02-09T18:46:35.506Z,31.03
2023-02-09T18:49:04.767Z,33.90
2023-02-09T18:51:34.158Z,38.53
2023-02-09T18:54:04.547Z,32.90
2023-02-09T18:56:34.912Z,30.57
2023-02-09T18:59:03.689Z,33.67
2023-02-09T19:01:32.460Z,32.33
2023-02-09T19:04:01.477Z,29.00
2023-02-09T19:06:30.167Z,32.10
2023-02-09T19:08:59.054Z,31.50
2023-02-09T19:11:27.782Z,36.10
2023-02-09T19:14:15.212Z,29.73
2023-02-09T19:16:44.670Z,31.63
2023-02-09T19:19:13.557Z,36.53
2023-02-09T19:21:42.177Z,30.17
2023-02-09T19:24:10.798Z,31.50
2023-02-09T19:26:39.298Z,35.23
2023-02-09T19:29:09.222Z,34.43
2023-02-09T19:31:38.623Z,42.97
2023-02-09T19:34:07.298Z,39.87
2023-02-09T19:36:36.402Z,41.93
2023-02-09T19:39:05.121Z,40.60
2023-02-09T19:41:33.804Z,29.80
2023-02-09T19:44:02.450Z,32.20
2023-02-09T19:46:32.923Z,33.57
2023-02-09T19:49:02.320Z,30.07
2023-02-09T19:51:31.032Z,32.43
2023-02-09T19:53:59.715Z,31.07
2023-02-09T19:56:28.611Z,30.43
2023-02-09T19:58:57.431Z,33.40
2023-02-09T20:01:27.091Z,30.87
2023-02-09T20:03:57.843Z,33.73
2023-02-09T20:06:30.642Z,30.70
2023-02-09T20:09:00.541Z,31.80
2023-02-09T20:11:30.992Z,29.20
2023-02-09T20:16:54.933Z,31.00
2023-02-09T20:19:27.958Z,36.20
2023-02-09T20:21:56.774Z,29.83
2023-02-09T20:24:25.550Z,29.80
2023-02-09T20:26:54.221Z,31.67
2023-02-09T20:29:23.318Z,31.40
2023-02-09T20:31:51.955Z,29.40
2023-02-09T20:34:47.248Z,33.60
2023-02-09T20:37:16.217Z,33.00
2023-02-09T20:39:45.293Z,30.63
2023-02-09T20:42:32.625Z,29.40
2023-02-09T20:45:19.214Z,33.50
2023-02-09T20:47:48.018Z,33.37
2023-02-09T20:50:20.156Z,30.50
2023-02-09T20:52:48.982Z,31.77
2023-02-09T20:55:22.902Z,34.10
2023-02-09T20:58:16.972Z,35.67
2023-02-09T21:00:46.422Z,30.07
2023-02-09T21:03:15.472Z,29.90
2023-02-09T21:05:52.350Z,31.37
2023-02-09T21:08:23.925Z,30.80
2023-02-09T21:10:57.090Z,29.07
2023-02-09T21:13:27.164Z,29.47
2023-02-09T21:15:57.132Z,29.07
2023-02-09T21:18:27.664Z,30.93
2023-02-09T21:21:09.268Z,29.87
2023-02-09T21:26:22.949Z,30.30
2023-02-09T21:28:56.412Z,31.50
2023-02-09T21:31:27.423Z,31.10
2023-02-09T21:33:56.962Z,33.93
2023-02-09T21:36:27.883Z,31.67
2023-02-09T21:38:57.074Z,28.67
2023-02-09T21:41:52.921Z,29.87
2023-02-09T21:44:21.909Z,31.53
2023-02-09T21:46:53.989Z,30.73
2023-02-09T21:49:23.691Z,32.83
2023-02-09T21:51:54.297Z,33.60
2023-02-09T21:54:26.544Z,30.50
2023-02-09T21:56:57.305Z,30.07
2023-02-09T21:59:26.417Z,32.97
2023-02-09T22:01:55.681Z,29.73
2023-02-09T22:04:25.992Z,29.13
2023-02-09T22:07:04.191Z,35.77
2023-02-09T22:09:33.348Z,33.20
2023-02-09T22:12:03.042Z,30.90
2023-02-09T22:14:32.224Z,36.50
2023-02-09T22:17:01.667Z,37.83
2023-02-09T22:19:30.864Z,29.93
2023-02-09T22:22:04.348Z,30.40
2023-02-09T22:24:35.137Z,27.50
2023-02-09T22:27:29.494Z,29.60
2023-02-09T22:29:58.892Z,32.50
2023-02-09T22:32:27.892Z,28.73
2023-02-09T22:34:56.977Z,29.53
2023-02-09T22:37:36.007Z,31.20
2023-02-09T22:40:05.510Z,28.30
2023-02-09T22:42:34.590Z,36.90
2023-02-09T22:45:04.524Z,32.43
2023-02-09T22:47:34.854Z,32.57
2023-02-09T22:50:04.057Z,27.70
2023-02-09T22:52:34.655Z,27.80
2023-02-09T22:55:03.687Z,27.90
2023-02-09T22:57:32.874Z,34.40
2023-02-09T23:00:01.992Z,36.00
2023-02-09T23:02:33.538Z,29.87
2023-02-09T23:05:02.943Z,38.90
2023-02-09T23:07:33.693Z,36.13
2023-02-09T23:10:03.183Z,44.13
2023-02-09T23:12:32.368Z,30.93
2023-02-09T23:15:01.250Z,35.40
2023-02-09T23:17:30.681Z,29.27
2023-02-09T23:20:10.059Z,28.00
2023-02-09T23:22:40.580Z,31.70
2023-02-09T23:25:09.825Z,29.17
2023-02-09T23:27:39.206Z,38.47
2023-02-09T23:30:09.572Z,32.10
2023-02-09T23:32:38.462Z,32.60
2023-02-09T23:35:08.689Z,29.40
2023-02-09T23:37:41.841Z,28.63
2023-02-09T23:40:12.565Z,35.30
2023-02-09T23:42:41.586Z,26.50
2023-02-09T23:45:11.324Z,29.37
2023-02-09T23:47:42.058Z,27.70
2023-02-09T23:50:11.255Z,29.90
2023-02-09T23:52:47.310Z,31.53
2023-02-09T23:55:16.592Z,30.90
2023-02-09T23:57:46.021Z,31.43
